Chesterfield, Missouri
Current Conditions -  °F | °C
As of 1:54 PM on Friday 24 Oct 2014 (Local Time) from KSUS Reporting Station
Broken Clouds Broken Clouds  
Wind Chill: 71°   Ceiling: 20000
Heat Index: 71°   Visibility: 10mi
Dew Point: 52°   Wind: 6mph
Humidity: 51%   Direction: NA
Pressure: 30.05"   Gusts: NA
Location:  38.65°N, 90.55°W
Report Text: KSUS 241854Z VRB05KT 10SM BKN200 22/11 A3005 RMK AO2 SLP174 T02170111
Loading
Personal Weather Stations






























Interactive Weather Map New forecast layout! Learn more

10-Day Weather Forecast

Advertisements
Track Severe Weather on mobile